Aeroporto :
LOGIN :

Iscrizione | Disclaimer

   EN    FR    IT 

 










Sommario :    VFR   VFR Marginale   IFR   IFR Intensivo   IFR Molto Intensivo
Visibilità : 
Base nubi : 
>= 8 km
>= 3000ft
5 / 8 km
1000 / 3000 ft
1500m / 5 km
500 / 1000 ft
800 / 1500m
200 / 500 ft
< 800m
< 200 ft
Simboli :   Temporali  Nebbia  Neve Forte  Precipitazioni Forti  Vento > 20 kt
SIGMETs :   Varie  Temporali  Ghiacco  Turbolenza  Onda orograficha  Ceneri Vulcaniche







- Altitudine del aeroporto : 1367 ft
- Codice IATA : FDH


EDNY - Friedrichshafen

ULTIMO METAR :
  • 201820Z 18003KT 140V200 CAVOK 27/15 Q1016

METARs OBSOLETI :
  • 201750Z 21006KT CAVOK 29/14 Q1015
  • 201720Z 24008KT CAVOK 29/14 Q1015
  • 201650Z 23008KT CAVOK 29/14 Q1015
  • 201620Z 24009KT CAVOK 30/12 Q1015
  • 201550Z 23012KT CAVOK 30/13 Q1016

TAF TAF EDNY
Valido dal 20 a 18 ore il 21 a 18 ore UTC


201700Z 2018/2118 24008KT CAVOK
BECMG 2018/2020 VRB03KT
PROB30
TEMPO 2101/2109 26020G35KT 4000 TSRA SCT012 BKN030CB
BECMG 2109/2111 24006KT
Nessun NOTAM noto per questo aeroporto.



MetMap, La meteo Aeronautica in un colpo d'occhio ! - Copyright ORBIFLY Dicembre 2007 - Disclaimer

ORBIFLY MET'MAP TEAM :

Programmazione e sviluppo : Alexandra Zaïnal
Concezione e sviluppo : Baudouin d'Aumeries
Co-Programmazione e sviluppo : Marc-Olivier Méhu
Supporto tecnico e logistico : Manuel Goepfert
Aiuto per la traduzione : Arnaldo La Scala

Contatto : metmap@orbifly.com




FONTI E CREDITI :

   NOAA